createdAt,value
2023-03-25T00:02:24.766Z,96525.81
2023-03-25T00:04:52.998Z,96526.69
2023-03-25T00:07:21.348Z,96526.69
2023-03-25T00:09:49.648Z,96533.00
2023-03-25T00:12:19.588Z,96526.78
2023-03-25T00:14:54.879Z,96530.34
2023-03-25T00:17:23.668Z,96541.06
2023-03-25T00:19:52.114Z,96542.88
2023-03-25T00:22:20.826Z,96539.38
2023-03-25T00:24:49.051Z,96533.16
2023-03-25T00:27:17.626Z,96537.66
2023-03-25T00:29:46.005Z,96535.81
2023-03-25T00:32:16.136Z,96529.59
2023-03-25T00:34:47.582Z,96531.41
2023-03-25T00:37:17.795Z,96534.97
2023-03-25T00:39:46.283Z,96520.69
2023-03-25T00:42:17.073Z,96525.22
2023-03-25T00:44:45.224Z,96526.03
2023-03-25T00:47:18.380Z,96523.38
2023-03-25T00:49:47.973Z,96519.84
2023-03-25T00:52:16.857Z,96517.16
2023-03-25T00:54:45.991Z,96519.84
2023-03-25T00:57:14.155Z,96520.69
2023-03-25T00:59:42.281Z,96513.63
2023-03-25T01:02:10.542Z,96518.97
2023-03-25T01:04:41.519Z,96524.34
2023-03-25T01:07:12.727Z,96523.38
2023-03-25T01:09:41.665Z,96521.66
2023-03-25T01:12:09.927Z,96535.09
2023-03-25T01:14:38.111Z,96528.84
2023-03-25T01:17:06.378Z,96524.34
2023-03-25T01:19:34.577Z,96519.13
2023-03-25T01:22:02.780Z,96504.81
2023-03-25T01:24:32.561Z,96503.84
2023-03-25T01:27:00.776Z,96484.31
2023-03-25T01:29:30.388Z,96478.94
2023-03-25T01:31:58.998Z,96459.31
2023-03-25T01:34:27.212Z,96457.47
2023-03-25T01:36:55.983Z,96452.97
2023-03-25T01:39:24.398Z,96437.84
2023-03-25T01:41:55.377Z,96423.56
2023-03-25T01:45:01.528Z,96427.94
2023-03-25T01:47:29.690Z,96417.22
2023-03-25T01:49:57.929Z,96416.38
2023-03-25T01:52:26.764Z,96434.31
2023-03-25T01:54:55.290Z,96413.69
2023-03-25T01:57:26.011Z,96403.78
2023-03-25T01:59:55.028Z,96440.53
2023-03-25T02:02:25.293Z,96405.66
2023-03-25T02:05:02.498Z,96428.94
2023-03-25T02:07:32.841Z,96420.88
2023-03-25T02:10:02.271Z,96393.19
2023-03-25T02:12:31.952Z,96394.06
2023-03-25T02:15:01.422Z,96387.81
2023-03-25T02:17:33.076Z,96389.66
2023-03-25T02:20:13.943Z,96403.06
2023-03-25T02:23:07.713Z,96413.78
2023-03-25T02:26:14.774Z,96419.16
2023-03-25T02:28:47.469Z,96396.88
2023-03-25T02:31:25.589Z,96405.00
2023-03-25T02:34:15.472Z,96411.13
2023-03-25T02:37:22.893Z,96416.63
2023-03-25T02:39:53.443Z,96406.75
2023-03-25T02:42:24.302Z,96420.16
2023-03-25T02:44:55.377Z,96416.63
2023-03-25T02:47:24.461Z,96423.69
2023-03-25T02:49:54.545Z,96434.44
2023-03-25T02:52:24.985Z,96428.22
2023-03-25T02:54:58.002Z,96431.75
2023-03-25T02:57:28.719Z,96437.13
2023-03-25T02:59:57.168Z,96435.41
2023-03-25T03:02:26.726Z,96445.19
2023-03-25T03:04:56.070Z,96445.19
2023-03-25T03:07:25.600Z,96438.09
2023-03-25T03:10:01.984Z,96444.31
2023-03-25T03:12:41.271Z,96442.50
2023-03-25T03:15:18.130Z,96430.88
2023-03-25T03:17:50.406Z,96430.03
2023-03-25T03:20:20.232Z,96431.75
2023-03-25T03:22:52.979Z,96434.44
2023-03-25T03:25:25.948Z,96437.13
2023-03-25T03:27:56.593Z,96446.13
2023-03-25T03:30:29.988Z,96455.03
2023-03-25T03:33:01.402Z,96455.03
2023-03-25T03:35:31.815Z,96447.00
2023-03-25T03:38:01.686Z,96452.38
2023-03-25T03:40:31.539Z,96446.13
2023-03-25T03:43:01.079Z,96441.75
2023-03-25T03:45:32.020Z,96451.50
2023-03-25T03:48:01.729Z,96464.91
2023-03-25T03:50:31.682Z,96464.91
2023-03-25T03:53:03.201Z,96472.97
2023-03-25T03:55:37.853Z,96474.78
2023-03-25T03:58:08.218Z,96480.88
2023-03-25T04:00:37.861Z,96491.75
2023-03-25T04:03:09.008Z,96494.44
2023-03-25T04:05:38.263Z,96498.94
2023-03-25T04:08:11.945Z,96504.31
2023-03-25T04:10:45.636Z,96501.75
2023-03-25T04:13:15.051Z,96506.16
2023-03-25T04:15:43.330Z,96508.84
2023-03-25T04:18:12.178Z,96516.91
2023-03-25T04:20:45.029Z,96506.16
2023-03-25T04:23:16.239Z,96515.16
2023-03-25T04:25:47.854Z,96522.28
2023-03-25T04:28:18.220Z,96518.84
2023-03-25T04:30:46.411Z,96525.91
2023-03-25T04:33:14.785Z,96516.03
2023-03-25T04:35:42.999Z,96522.38
2023-03-25T04:38:11.934Z,96533.09
2023-03-25T04:40:40.933Z,96543.00
2023-03-25T04:43:10.534Z,96556.28
2023-03-25T04:45:38.736Z,96554.56
2023-03-25T04:48:07.188Z,96562.63
2023-03-25T04:50:35.531Z,96562.63
2023-03-25T04:53:03.632Z,96562.63
2023-03-25T04:55:31.782Z,96555.56
2023-03-25T04:57:59.893Z,96548.38
2023-03-25T05:00:29.463Z,96556.41
2023-03-25T05:03:02.012Z,96561.78
2023-03-25T05:05:30.409Z,96560.94
2023-03-25T05:07:59.195Z,96578.84
2023-03-25T05:10:29.662Z,96577.03
2023-03-25T05:12:59.828Z,96576.16
2023-03-25T05:15:30.586Z,96577.97
2023-03-25T05:17:58.742Z,96577.97
2023-03-25T05:20:26.896Z,96572.63
2023-03-25T05:22:57.544Z,96571.66
2023-03-25T05:25:25.736Z,96563.59
2023-03-25T05:27:54.476Z,96570.66
2023-03-25T05:30:22.625Z,96556.41
2023-03-25T05:32:56.590Z,96550.19
2023-03-25T05:35:26.763Z,96553.75
2023-03-25T05:37:55.968Z,96549.19
2023-03-25T05:40:25.441Z,96557.25
2023-03-25T05:42:54.741Z,96562.63
2023-03-25T05:45:22.970Z,96551.88
2023-03-25T05:47:52.550Z,96553.75
2023-03-25T05:50:21.765Z,96564.34
2023-03-25T05:52:51.916Z,96563.47
2023-03-25T05:55:21.502Z,96566.16
2023-03-25T05:57:49.778Z,96580.44
2023-03-25T06:00:19.274Z,96587.50
2023-03-25T06:02:48.894Z,96579.47
2023-03-25T06:05:23.564Z,96587.50
2023-03-25T06:07:52.196Z,96593.88
2023-03-25T06:10:21.012Z,96594.00
2023-03-25T06:12:53.141Z,96589.47
2023-03-25T06:15:29.057Z,96601.91
2023-03-25T06:17:57.645Z,96595.56
2023-03-25T06:20:27.295Z,96590.19
2023-03-25T06:22:55.638Z,96572.28
2023-03-25T06:25:24.375Z,96575.81
2023-03-25T06:27:52.586Z,96577.63
2023-03-25T06:30:21.294Z,96574.09
2023-03-25T06:32:50.840Z,96574.00
2023-03-25T06:35:20.295Z,96574.00
2023-03-25T06:37:50.505Z,96580.19
2023-03-25T06:40:31.131Z,96585.56
2023-03-25T06:43:02.550Z,96599.84
2023-03-25T06:46:02.541Z,96598.03
2023-03-25T06:48:53.785Z,96600.72
2023-03-25T06:51:23.912Z,96595.34
2023-03-25T06:53:53.626Z,96589.00
2023-03-25T06:56:21.910Z,96591.69
2023-03-25T06:58:50.069Z,96591.69
2023-03-25T07:01:18.244Z,96593.41
2023-03-25T07:03:46.445Z,96599.63
2023-03-25T07:06:17.193Z,96599.63
2023-03-25T07:08:45.339Z,96623.78
2023-03-25T07:11:15.181Z,96644.28
2023-03-25T07:13:43.431Z,96650.63
2023-03-25T07:16:11.869Z,96646.00
2023-03-25T07:18:42.877Z,96631.72
2023-03-25T07:21:10.981Z,96628.03
2023-03-25T07:23:40.780Z,96620.97
2023-03-25T07:26:09.084Z,96604.75
2023-03-25T07:28:39.270Z,96597.56
2023-03-25T07:31:09.102Z,96599.25
2023-03-25T07:33:37.241Z,96609.16
2023-03-25T07:36:06.322Z,96619.91
2023-03-25T07:38:34.466Z,96626.97
2023-03-25T07:41:06.590Z,96617.09
2023-03-25T07:43:34.862Z,96609.03
2023-03-25T07:46:14.505Z,96612.59
2023-03-25T07:48:44.097Z,96610.72
2023-03-25T07:51:12.612Z,96605.38
2023-03-25T07:53:44.582Z,96607.09
2023-03-25T07:56:12.801Z,96601.84
2023-03-25T07:58:42.005Z,96606.22
2023-03-25T08:01:10.214Z,96612.47
2023-03-25T08:03:40.137Z,96616.00
2023-03-25T08:06:09.261Z,96612.34
2023-03-25T08:08:37.452Z,96612.34
2023-03-25T08:11:06.212Z,96613.31
2023-03-25T08:13:34.435Z,96613.31
2023-03-25T08:16:02.626Z,96627.59
2023-03-25T08:18:31.284Z,96639.19
2023-03-25T08:21:00.780Z,96646.38
2023-03-25T08:23:29.119Z,96656.16
2023-03-25T08:25:57.278Z,96651.66
2023-03-25T08:28:27.080Z,96655.16
2023-03-25T08:30:55.961Z,96660.53
2023-03-25T08:33:34.062Z,96656.91
2023-03-25T08:36:04.198Z,96649.72
2023-03-25T08:38:34.859Z,96648.84
2023-03-25T08:41:03.321Z,96661.41
2023-03-25T08:43:31.378Z,96661.28
2023-03-25T08:45:59.667Z,96655.06
2023-03-25T08:48:27.995Z,96655.06
2023-03-25T08:50:56.264Z,96655.91
2023-03-25T08:53:26.070Z,96653.22
2023-03-25T08:55:54.416Z,96654.94
2023-03-25T08:58:22.590Z,96647.75
2023-03-25T09:00:53.698Z,96647.75
2023-03-25T09:03:22.098Z,96627.13
2023-03-25T09:05:50.467Z,96604.81
2023-03-25T09:08:18.818Z,96603.81
2023-03-25T09:10:48.434Z,96589.53
2023-03-25T09:13:16.732Z,96578.78
2023-03-25T09:15:44.892Z,96567.22
2023-03-25T09:18:13.009Z,96558.31
2023-03-25T09:20:41.528Z,96560.97
2023-03-25T09:23:09.907Z,96560.00
2023-03-25T09:25:39.351Z,96553.66
2023-03-25T09:28:09.138Z,96552.81
2023-03-25T09:30:37.307Z,96556.34
2023-03-25T09:33:06.016Z,96568.91
2023-03-25T09:35:34.283Z,96576.00
2023-03-25T09:38:02.644Z,96591.25
2023-03-25T09:40:31.950Z,96608.22
2023-03-25T09:43:12.404Z,96627.84
2023-03-25T09:45:41.617Z,96643.13
2023-03-25T09:48:18.248Z,96660.94
2023-03-25T09:50:46.468Z,96654.69
2023-03-25T09:53:18.408Z,96653.75
2023-03-25T09:55:46.785Z,96652.00
2023-03-25T09:58:28.018Z,96658.25
2023-03-25T10:00:58.046Z,96663.63
2023-03-25T10:03:28.616Z,96657.38
2023-03-25T10:06:02.957Z,96657.38
2023-03-25T10:08:36.160Z,96651.06
2023-03-25T10:11:08.788Z,96653.75
2023-03-25T10:13:42.771Z,96658.25
2023-03-25T10:16:15.756Z,96662.66
2023-03-25T10:18:49.321Z,96669.84
2023-03-25T10:21:20.060Z,96659.97
2023-03-25T10:23:51.096Z,96657.28
2023-03-25T10:26:21.257Z,96657.28
2023-03-25T10:28:53.877Z,96651.94
2023-03-25T10:31:23.932Z,96644.69
2023-03-25T10:33:54.265Z,96651.06
2023-03-25T10:36:25.022Z,96649.25
2023-03-25T10:38:55.618Z,96650.06
2023-03-25T10:41:26.598Z,96646.56
2023-03-25T10:43:56.173Z,96639.34
2023-03-25T10:46:28.621Z,96636.66
2023-03-25T10:48:56.942Z,96631.28
2023-03-25T10:51:27.956Z,96628.59
2023-03-25T10:53:56.531Z,96626.78
2023-03-25T10:56:26.847Z,96643.75
2023-03-25T10:58:57.191Z,96640.06
2023-03-25T11:01:33.808Z,96648.13
2023-03-25T11:04:01.953Z,96649.00
2023-03-25T11:06:31.111Z,96649.00
2023-03-25T11:09:07.137Z,96643.75
2023-03-25T11:11:35.684Z,96650.72
2023-03-25T11:14:05.305Z,96651.69
2023-03-25T11:16:34.060Z,96639.13
2023-03-25T11:19:02.551Z,96638.25
2023-03-25T11:21:33.037Z,96635.44
2023-03-25T11:24:01.967Z,96630.06
2023-03-25T11:26:33.870Z,96623.88
2023-03-25T11:29:02.940Z,96625.56
2023-03-25T11:31:35.093Z,96619.34
2023-03-25T11:34:06.433Z,96623.88
2023-03-25T11:36:34.878Z,96622.00
2023-03-25T11:39:04.540Z,96614.81
2023-03-25T11:41:33.712Z,96609.44
2023-03-25T11:44:02.437Z,96608.59
2023-03-25T11:46:30.996Z,96608.50
2023-03-25T11:49:02.946Z,96610.31
2023-03-25T11:51:31.508Z,96611.19
2023-03-25T11:54:00.856Z,96604.09
2023-03-25T11:56:31.556Z,96602.25
2023-03-25T11:58:59.976Z,96604.94
2023-03-25T12:01:30.921Z,96595.91
2023-03-25T12:04:17.128Z,96589.69
2023-03-25T12:06:59.559Z,96589.69
2023-03-25T12:09:30.439Z,96587.84
2023-03-25T12:12:18.791Z,96587.00
2023-03-25T12:14:52.640Z,96583.34
2023-03-25T12:17:25.720Z,96574.41
2023-03-25T12:19:59.491Z,96571.72
2023-03-25T12:22:35.371Z,96561.84
2023-03-25T12:25:13.528Z,96555.63
2023-03-25T12:27:49.156Z,96564.53
2023-03-25T12:30:25.059Z,96558.22
2023-03-25T12:32:56.030Z,96553.81
2023-03-25T12:35:30.601Z,96561.72
2023-03-25T12:38:12.258Z,96563.47
2023-03-25T12:40:51.289Z,96559.91
2023-03-25T12:43:21.662Z,96557.22
2023-03-25T12:45:55.673Z,96553.56
2023-03-25T12:48:41.788Z,96555.41
2023-03-25T12:51:16.232Z,96552.72
2023-03-25T12:53:49.959Z,96544.66
2023-03-25T12:56:28.955Z,96534.78
2023-03-25T12:59:06.887Z,96538.31
2023-03-25T13:01:38.535Z,96530.97
2023-03-25T13:04:22.843Z,96522.91
2023-03-25T13:06:58.817Z,96535.41
2023-03-25T13:09:27.997Z,96532.59
2023-03-25T13:11:57.153Z,96536.88
2023-03-25T13:14:26.523Z,96541.28
2023-03-25T13:16:55.836Z,96533.13
2023-03-25T13:19:24.680Z,96525.78
2023-03-25T13:21:55.601Z,96524.94
2023-03-25T13:24:26.177Z,96522.97
2023-03-25T13:26:55.620Z,96518.47
2023-03-25T13:29:27.787Z,96521.88
2023-03-25T13:31:56.104Z,96531.66
2023-03-25T13:34:27.390Z,96522.63
2023-03-25T13:37:05.271Z,96519.81
2023-03-25T13:39:41.060Z,96507.25
2023-03-25T13:42:13.501Z,96508.94
2023-03-25T13:44:42.661Z,96501.75
2023-03-25T13:47:18.086Z,96500.75
2023-03-25T13:49:48.280Z,96488.19
2023-03-25T13:52:18.404Z,96490.72
2023-03-25T13:54:47.964Z,96488.03
2023-03-25T13:57:42.723Z,96485.25
2023-03-25T14:00:25.197Z,96479.03
2023-03-25T14:03:25.427Z,96480.72
2023-03-25T14:06:20.657Z,96491.38
2023-03-25T14:09:22.192Z,96499.28
2023-03-25T14:11:52.572Z,96495.63
2023-03-25T14:14:22.297Z,96492.94
2023-03-25T14:16:51.466Z,96489.28
2023-03-25T14:19:22.479Z,96490.25
2023-03-25T14:21:51.216Z,96497.34
2023-03-25T14:24:21.772Z,96491.97
2023-03-25T14:26:52.621Z,96496.34
2023-03-25T14:29:31.967Z,96477.53
2023-03-25T14:32:02.200Z,96468.53
2023-03-25T14:34:30.484Z,96467.66
2023-03-25T14:37:19.085Z,96464.97
2023-03-25T14:39:47.239Z,96456.03
2023-03-25T14:42:58.411Z,96469.38
2023-03-25T14:45:59.369Z,96470.94
2023-03-25T14:48:31.679Z,96455.94
2023-03-25T14:51:39.934Z,96464.75
2023-03-25T14:54:19.740Z,96458.50
2023-03-25T14:56:53.596Z,96463.75
2023-03-25T14:59:25.082Z,96454.81
2023-03-25T15:01:53.457Z,96453.84
2023-03-25T15:04:26.424Z,96452.88
2023-03-25T15:06:54.779Z,96445.66
2023-03-25T15:09:22.927Z,96438.47
2023-03-25T15:11:57.610Z,96438.47
2023-03-25T15:14:29.436Z,96444.69
2023-03-25T15:17:02.851Z,96443.84
2023-03-25T15:19:31.055Z,96434.78
2023-03-25T15:22:18.928Z,96438.34
2023-03-25T15:24:55.630Z,96439.19
2023-03-25T15:27:31.308Z,96439.19
2023-03-25T15:30:04.581Z,96434.78
2023-03-25T15:32:38.443Z,96432.97
2023-03-25T15:35:38.323Z,96425.75
2023-03-25T15:38:38.948Z,96426.72
2023-03-25T15:41:17.261Z,96433.97
2023-03-25T15:44:18.339Z,96418.66
2023-03-25T15:47:04.491Z,96428.59
2023-03-25T15:49:42.556Z,96423.22
2023-03-25T15:52:16.588Z,96425.88
2023-03-25T15:54:45.464Z,96425.03
2023-03-25T15:57:20.931Z,96431.25
2023-03-25T15:59:52.783Z,96434.91
2023-03-25T16:02:27.894Z,96431.38
2023-03-25T16:04:56.368Z,96424.31
2023-03-25T16:07:25.517Z,96433.22
2023-03-25T16:09:55.485Z,96428.81
2023-03-25T16:12:24.720Z,96430.53
2023-03-25T16:14:53.149Z,96445.78
2023-03-25T16:17:22.588Z,96448.47
2023-03-25T16:19:53.047Z,96461.06
2023-03-25T16:22:23.239Z,96476.22
2023-03-25T16:24:52.298Z,96487.91
2023-03-25T16:27:22.652Z,96487.06
2023-03-25T16:29:52.804Z,96505.13
2023-03-25T16:32:22.334Z,96507.72
2023-03-25T16:34:53.938Z,96511.38
2023-03-25T16:37:22.418Z,96523.84
2023-03-25T16:39:52.825Z,96527.50
2023-03-25T16:42:25.656Z,96528.50
2023-03-25T16:44:54.177Z,96529.59
2023-03-25T16:47:22.499Z,96533.97
2023-03-25T16:49:53.638Z,96544.72
2023-03-25T16:52:24.741Z,96555.44
2023-03-25T16:55:15.054Z,96562.69
2023-03-25T16:57:43.305Z,96576.22
2023-03-25T17:00:18.193Z,96624.56
2023-03-25T17:02:48.634Z,96661.34
2023-03-25T17:05:19.947Z,96619.47
2023-03-25T17:07:49.573Z,96555.94
2023-03-25T17:10:20.803Z,96574.88
2023-03-25T17:12:52.230Z,96591.00
2023-03-25T17:15:21.123Z,96608.19
2023-03-25T17:17:51.718Z,96614.56
2023-03-25T17:20:23.044Z,96614.56
2023-03-25T17:23:09.405Z,96621.75
2023-03-25T17:25:38.331Z,96627.25
2023-03-25T17:28:09.491Z,96628.94
2023-03-25T17:30:42.844Z,96623.72
2023-03-25T17:33:11.947Z,96638.13
2023-03-25T17:35:42.392Z,96628.22
2023-03-25T17:38:14.553Z,96621.16
2023-03-25T17:40:42.717Z,96621.16
2023-03-25T17:43:18.704Z,96620.28
2023-03-25T17:45:47.227Z,96621.16
2023-03-25T17:48:16.243Z,96627.38
2023-03-25T17:50:52.982Z,96635.53
2023-03-25T17:53:21.439Z,96640.91
2023-03-25T17:55:50.105Z,96632.13
2023-03-25T17:58:18.554Z,96641.16
2023-03-25T18:00:47.800Z,96637.47
2023-03-25T18:03:16.974Z,96638.34
2023-03-25T18:05:45.828Z,96642.63
2023-03-25T18:08:15.393Z,96646.19
2023-03-25T18:10:43.769Z,96656.81
2023-03-25T18:13:12.640Z,96656.81
2023-03-25T18:15:41.347Z,96651.44
2023-03-25T18:18:11.711Z,96667.56
2023-03-25T18:20:39.938Z,96657.66
2023-03-25T18:23:08.195Z,96647.75
2023-03-25T18:25:37.985Z,96659.50
2023-03-25T18:28:06.470Z,96668.50
2023-03-25T18:30:38.587Z,96674.75
2023-03-25T18:33:06.896Z,96672.06
2023-03-25T18:35:35.150Z,96684.63
2023-03-25T18:38:04.513Z,96673.88
2023-03-25T18:40:34.754Z,96673.88
2023-03-25T18:43:04.470Z,96675.72
2023-03-25T18:45:32.952Z,96677.56
2023-03-25T18:48:01.308Z,96678.41
2023-03-25T18:50:30.749Z,96684.53
2023-03-25T18:52:58.977Z,96697.84
2023-03-25T18:55:28.064Z,96696.84
2023-03-25T18:57:56.236Z,96688.69
2023-03-25T19:00:27.907Z,96683.19
2023-03-25T19:02:56.572Z,96689.44
2023-03-25T19:05:25.444Z,96690.25
2023-03-25T19:07:53.657Z,96683.06
2023-03-25T19:10:22.876Z,96681.13
2023-03-25T19:12:51.432Z,96681.25
2023-03-25T19:15:20.454Z,96690.16
2023-03-25T19:17:50.007Z,96692.94
2023-03-25T19:20:19.189Z,96684.91
2023-03-25T19:22:47.213Z,96695.63
2023-03-25T19:25:15.416Z,96692.94
2023-03-25T19:27:43.895Z,96705.66
2023-03-25T19:30:13.085Z,96700.00
2023-03-25T19:32:42.975Z,96705.63
2023-03-25T19:35:13.061Z,96710.88
2023-03-25T19:37:47.591Z,96708.81
2023-03-25T19:40:17.088Z,96711.41
2023-03-25T19:42:45.387Z,96710.41
2023-03-25T19:45:13.960Z,96719.06
2023-03-25T19:47:43.020Z,96721.75
2023-03-25T19:50:13.029Z,96720.81
2023-03-25T19:52:43.362Z,96723.50
2023-03-25T19:55:11.980Z,96727.88
2023-03-25T19:57:40.830Z,96730.47
2023-03-25T20:00:12.617Z,96724.97
2023-03-25T20:02:41.411Z,96723.16
2023-03-25T20:05:11.710Z,96714.09
2023-03-25T20:07:41.822Z,96708.72
2023-03-25T20:10:19.467Z,96710.53
2023-03-25T20:12:48.595Z,96711.53
2023-03-25T20:15:17.530Z,96723.97
2023-03-25T20:17:45.798Z,96724.84
2023-03-25T20:20:14.849Z,96722.16
2023-03-25T20:22:44.703Z,96718.59
2023-03-25T20:25:13.340Z,96715.91
2023-03-25T20:27:42.025Z,96719.47
2023-03-25T20:30:11.344Z,96726.56
2023-03-25T20:32:42.517Z,96722.03
2023-03-25T20:35:13.163Z,96721.19
2023-03-25T20:37:41.496Z,96730.97
2023-03-25T20:40:12.905Z,96737.19
2023-03-25T20:42:41.748Z,96739.88
2023-03-25T20:45:12.115Z,96732.69
2023-03-25T20:47:40.443Z,96734.50
2023-03-25T20:50:09.185Z,96739.88
2023-03-25T20:52:38.156Z,96733.66
2023-03-25T20:55:07.348Z,96732.69
2023-03-25T20:57:37.337Z,96744.28
2023-03-25T21:00:06.393Z,96739.88
2023-03-25T21:02:34.729Z,96744.28
2023-03-25T21:05:03.738Z,96749.78
2023-03-25T21:07:35.305Z,96753.31
2023-03-25T21:10:03.586Z,96746.13
2023-03-25T21:12:42.442Z,96746.13
2023-03-25T21:15:13.249Z,96745.25
2023-03-25T21:17:42.245Z,96746.22
2023-03-25T21:20:11.878Z,96735.38
2023-03-25T21:22:43.313Z,96738.16
2023-03-25T21:25:13.153Z,96740.75
2023-03-25T21:27:42.479Z,96741.59
2023-03-25T21:30:13.416Z,96734.50
2023-03-25T21:32:41.884Z,96731.81
2023-03-25T21:35:10.361Z,96724.63
2023-03-25T21:37:41.358Z,96733.66
2023-03-25T21:40:11.664Z,96733.53
2023-03-25T21:42:41.376Z,96750.63
2023-03-25T21:45:10.851Z,96751.38
2023-03-25T21:47:41.394Z,96761.25
2023-03-25T21:50:11.222Z,96758.56
2023-03-25T21:52:43.132Z,96763.94
2023-03-25T21:55:11.579Z,96757.72
2023-03-25T21:57:40.030Z,96758.56
2023-03-25T22:00:09.961Z,96763.09
2023-03-25T22:02:43.574Z,96756.88
2023-03-25T22:05:12.251Z,96764.81
2023-03-25T22:07:40.867Z,96758.56
2023-03-25T22:10:10.063Z,96756.88
2023-03-25T22:12:38.229Z,96756.88
2023-03-25T22:15:07.579Z,96756.00
2023-03-25T22:17:35.938Z,96752.47
2023-03-25T22:20:06.937Z,96750.63
2023-03-25T22:22:35.208Z,96762.25
2023-03-25T22:25:04.168Z,96758.69
2023-03-25T22:27:32.668Z,96765.88
2023-03-25T22:30:01.804Z,96754.28
2023-03-25T22:32:30.056Z,96765.88
2023-03-25T22:34:58.236Z,96756.97
2023-03-25T22:37:27.772Z,96768.56
2023-03-25T22:39:55.961Z,96764.19
2023-03-25T22:42:25.842Z,96756.97
2023-03-25T22:44:53.966Z,96755.25
2023-03-25T22:47:22.046Z,96756.22
2023-03-25T22:49:50.167Z,96761.59
2023-03-25T22:52:18.329Z,96767.84
2023-03-25T22:54:48.004Z,96765.28
2023-03-25T22:57:16.288Z,96763.53
2023-03-25T22:59:44.429Z,96758.16
2023-03-25T23:02:14.615Z,96760.84
2023-03-25T23:04:42.762Z,96750.22
2023-03-25T23:07:10.964Z,96751.22
2023-03-25T23:09:45.228Z,96759.28
2023-03-25T23:12:15.701Z,96759.28
2023-03-25T23:14:48.916Z,96757.56
2023-03-25T23:17:17.207Z,96745.94
2023-03-25T23:19:45.588Z,96746.94
2023-03-25T23:22:13.702Z,96752.31
2023-03-25T23:24:42.447Z,96755.94
2023-03-25T23:27:11.666Z,96749.63
2023-03-25T23:29:41.816Z,96750.56
2023-03-25T23:32:10.251Z,96752.44
2023-03-25T23:34:40.316Z,96746.19
2023-03-25T23:37:09.265Z,96748.00
2023-03-25T23:39:37.584Z,96742.63
2023-03-25T23:42:07.824Z,96754.38
2023-03-25T23:44:36.119Z,96748.13
2023-03-25T23:47:06.232Z,96743.63
2023-03-25T23:49:38.540Z,96745.44
2023-03-25T23:52:11.120Z,96735.66
2023-03-25T23:54:39.995Z,96744.72
2023-03-25T23:57:08.210Z,96744.72
2023-03-25T23:59:36.480Z,96743.84
